sensor_id;sensor_type;location;lat;lon;timestamp;temperature;humidity
10883;DHT22;5494;51.796;10.952;2022-11-18T00:01:29;5.20;99.90
10883;DHT22;5494;51.796;10.952;2022-11-18T00:04:00;5.30;99.90
10883;DHT22;5494;51.796;10.952;2022-11-18T00:06:29;5.20;99.90
10883;DHT22;5494;51.796;10.952;2022-11-18T00:08:58;5.20;99.90
10883;DHT22;5494;51.796;10.952;2022-11-18T00:11:28;5.30;99.90
10883;DHT22;5494;51.796;10.952;2022-11-18T00:14:16;5.30;99.90
10883;DHT22;5494;51.796;10.952;2022-11-18T00:16:48;5.20;99.90
10883;DHT22;5494;51.796;10.952;2022-11-18T00:19:20;5.10;99.90
10883;DHT22;5494;51.796;10.952;2022-11-18T00:21:50;5.10;99.90
10883;DHT22;5494;51.796;10.952;2022-11-18T00:24:19;5.00;99.90
10883;DHT22;5494;51.796;10.952;2022-11-18T00:26:49;5.00;99.90
10883;DHT22;5494;51.796;10.952;2022-11-18T00:29:18;5.00;99.90
10883;DHT22;5494;51.796;10.952;2022-11-18T00:31:47;4.90;99.90
10883;DHT22;5494;51.796;10.952;2022-11-18T00:34:18;4.90;99.90
10883;DHT22;5494;51.796;10.952;2022-11-18T00:36:47;4.90;99.90
10883;DHT22;5494;51.796;10.952;2022-11-18T00:39:18;4.90;99.90
10883;DHT22;5494;51.796;10.952;2022-11-18T00:41:48;4.90;99.90
10883;DHT22;5494;51.796;10.952;2022-11-18T00:44:34;4.90;99.90
10883;DHT22;5494;51.796;10.952;2022-11-18T00:47:03;4.90;99.90
10883;DHT22;5494;51.796;10.952;2022-11-18T00:49:33;4.90;99.90
10883;DHT22;5494;51.796;10.952;2022-11-18T00:52:02;4.80;99.90
10883;DHT22;5494;51.796;10.952;2022-11-18T00:54:31;4.80;99.90
10883;DHT22;5494;51.796;10.952;2022-11-18T00:56:59;4.80;99.90
10883;DHT22;5494;51.796;10.952;2022-11-18T00:59:30;4.80;99.90
10883;DHT22;5494;51.796;10.952;2022-11-18T01:01:58;4.80;99.90
10883;DHT22;5494;51.796;10.952;2022-11-18T01:04:27;4.80;99.90
10883;DHT22;5494;51.796;10.952;2022-11-18T01:06:56;4.90;99.90
10883;DHT22;5494;51.796;10.952;2022-11-18T01:09:25;4.90;99.90
10883;DHT22;5494;51.796;10.952;2022-11-18T01:11:54;5.00;99.90
10883;DHT22;5494;51.796;10.952;2022-11-18T01:14:40;4.90;99.90
10883;DHT22;5494;51.796;10.952;2022-11-18T01:17:08;4.80;99.90
10883;DHT22;5494;51.796;10.952;2022-11-18T01:19:37;4.80;99.90
10883;DHT22;5494;51.796;10.952;2022-11-18T01:22:07;4.70;99.90
10883;DHT22;5494;51.796;10.952;2022-11-18T01:24:35;4.80;99.90
10883;DHT22;5494;51.796;10.952;2022-11-18T01:27:04;4.80;99.90
10883;DHT22;5494;51.796;10.952;2022-11-18T01:29:32;4.90;99.90
10883;DHT22;5494;51.796;10.952;2022-11-18T01:32:01;4.80;99.90
10883;DHT22;5494;51.796;10.952;2022-11-18T01:34:49;4.80;99.90
10883;DHT22;5494;51.796;10.952;2022-11-18T01:37:19;4.90;99.90
10883;DHT22;5494;51.796;10.952;2022-11-18T01:39:47;4.80;99.90
10883;DHT22;5494;51.796;10.952;2022-11-18T01:42:16;4.80;99.90
10883;DHT22;5494;51.796;10.952;2022-11-18T01:45:00;4.80;99.90
10883;DHT22;5494;51.796;10.952;2022-11-18T01:47:39;4.70;99.90
10883;DHT22;5494;51.796;10.952;2022-11-18T01:50:12;4.80;99.90
10883;DHT22;5494;51.796;10.952;2022-11-18T01:52:44;4.70;99.90
10883;DHT22;5494;51.796;10.952;2022-11-18T01:55:22;4.80;99.90
10883;DHT22;5494;51.796;10.952;2022-11-18T01:57:59;4.80;99.90
10883;DHT22;5494;51.796;10.952;2022-11-18T02:00:30;4.80;99.90
10883;DHT22;5494;51.796;10.952;2022-11-18T02:03:01;4.80;99.90
10883;DHT22;5494;51.796;10.952;2022-11-18T02:05:31;4.90;99.90
10883;DHT22;5494;51.796;10.952;2022-11-18T02:08:05;4.70;99.90
10883;DHT22;5494;51.796;10.952;2022-11-18T02:10:35;4.60;99.90
10883;DHT22;5494;51.796;10.952;2022-11-18T02:13:04;4.50;99.90
10883;DHT22;5494;51.796;10.952;2022-11-18T02:15:44;4.40;99.90
10883;DHT22;5494;51.796;10.952;2022-11-18T02:18:26;4.30;99.90
10883;DHT22;5494;51.796;10.952;2022-11-18T02:21:09;4.30;99.90
10883;DHT22;5494;51.796;10.952;2022-11-18T02:24:22;4.30;99.90
10883;DHT22;5494;51.796;10.952;2022-11-18T02:27:37;4.30;99.90
10883;DHT22;5494;51.796;10.952;2022-11-18T02:30:29;4.30;99.90
10883;DHT22;5494;51.796;10.952;2022-11-18T02:33:05;4.30;99.90
10883;DHT22;5494;51.796;10.952;2022-11-18T02:35:40;4.20;99.90
10883;DHT22;5494;51.796;10.952;2022-11-18T02:38:14;4.20;99.90
10883;DHT22;5494;51.796;10.952;2022-11-18T02:40:50;4.20;99.90
10883;DHT22;5494;51.796;10.952;2022-11-18T02:43:27;4.20;99.90
10883;DHT22;5494;51.796;10.952;2022-11-18T02:46:04;4.20;99.90
10883;DHT22;5494;51.796;10.952;2022-11-18T02:48:39;4.30;99.90
10883;DHT22;5494;51.796;10.952;2022-11-18T02:51:13;4.20;99.90
10883;DHT22;5494;51.796;10.952;2022-11-18T02:53:46;4.20;99.90
10883;DHT22;5494;51.796;10.952;2022-11-18T02:56:17;4.20;99.90
10883;DHT22;5494;51.796;10.952;2022-11-18T02:58:48;4.20;99.90
10883;DHT22;5494;51.796;10.952;2022-11-18T03:01:21;4.20;99.90
10883;DHT22;5494;51.796;10.952;2022-11-18T03:03:53;4.20;99.90
10883;DHT22;5494;51.796;10.952;2022-11-18T03:06:27;4.20;99.90
10883;DHT22;5494;51.796;10.952;2022-11-18T03:09:08;4.20;99.90
10883;DHT22;5494;51.796;10.952;2022-11-18T03:11:48;4.20;99.90
10883;DHT22;5494;51.796;10.952;2022-11-18T03:14:29;4.20;99.90
10883;DHT22;5494;51.796;10.952;2022-11-18T03:17:09;4.20;99.90
10883;DHT22;5494;51.796;10.952;2022-11-18T03:19:55;4.20;99.90
10883;DHT22;5494;51.796;10.952;2022-11-18T03:22:37;4.30;99.90
10883;DHT22;5494;51.796;10.952;2022-11-18T03:25:19;4.30;99.90
10883;DHT22;5494;51.796;10.952;2022-11-18T03:28:02;4.20;99.90
10883;DHT22;5494;51.796;10.952;2022-11-18T03:30:40;4.10;99.90
10883;DHT22;5494;51.796;10.952;2022-11-18T03:33:18;4.10;99.90
10883;DHT22;5494;51.796;10.952;2022-11-18T03:35:52;4.00;99.90
10883;DHT22;5494;51.796;10.952;2022-11-18T03:38:26;4.00;99.90
10883;DHT22;5494;51.796;10.952;2022-11-18T03:41:03;3.90;99.90
10883;DHT22;5494;51.796;10.952;2022-11-18T03:43:39;3.90;99.90
10883;DHT22;5494;51.796;10.952;2022-11-18T03:46:15;3.90;99.90
10883;DHT22;5494;51.796;10.952;2022-11-18T03:48:53;3.90;99.90
10883;DHT22;5494;51.796;10.952;2022-11-18T03:51:27;3.80;99.90
10883;DHT22;5494;51.796;10.952;2022-11-18T03:54:04;3.80;99.90
10883;DHT22;5494;51.796;10.952;2022-11-18T03:56:37;3.80;99.90
10883;DHT22;5494;51.796;10.952;2022-11-18T03:59:12;3.70;99.90
10883;DHT22;5494;51.796;10.952;2022-11-18T04:01:49;3.80;99.90
10883;DHT22;5494;51.796;10.952;2022-11-18T04:04:23;3.80;99.90
10883;DHT22;5494;51.796;10.952;2022-11-18T04:06:59;3.70;99.90
10883;DHT22;5494;51.796;10.952;2022-11-18T04:09:34;3.60;99.90
10883;DHT22;5494;51.796;10.952;2022-11-18T04:12:10;3.60;99.90
10883;DHT22;5494;51.796;10.952;2022-11-18T04:14:43;3.60;99.90
10883;DHT22;5494;51.796;10.952;2022-11-18T04:17:16;3.60;99.90
10883;DHT22;5494;51.796;10.952;2022-11-18T04:19:49;3.60;99.90
10883;DHT22;5494;51.796;10.952;2022-11-18T04:22:17;3.60;99.90
10883;DHT22;5494;51.796;10.952;2022-11-18T04:24:46;3.60;99.90
10883;DHT22;5494;51.796;10.952;2022-11-18T04:27:14;3.60;99.90
10883;DHT22;5494;51.796;10.952;2022-11-18T04:29:43;3.70;99.90
10883;DHT22;5494;51.796;10.952;2022-11-18T04:32:11;3.70;99.90
10883;DHT22;5494;51.796;10.952;2022-11-18T04:34:40;3.70;99.90
10883;DHT22;5494;51.796;10.952;2022-11-18T04:37:10;3.70;99.90
10883;DHT22;5494;51.796;10.952;2022-11-18T04:39:38;3.70;99.90
10883;DHT22;5494;51.796;10.952;2022-11-18T04:42:07;3.70;99.90
10883;DHT22;5494;51.796;10.952;2022-11-18T04:44:35;3.70;99.90
10883;DHT22;5494;51.796;10.952;2022-11-18T04:47:05;3.60;99.90
10883;DHT22;5494;51.796;10.952;2022-11-18T04:49:34;3.60;99.90
10883;DHT22;5494;51.796;10.952;2022-11-18T04:52:03;3.60;99.90
10883;DHT22;5494;51.796;10.952;2022-11-18T04:54:34;3.60;99.90
10883;DHT22;5494;51.796;10.952;2022-11-18T04:57:03;3.50;99.90
10883;DHT22;5494;51.796;10.952;2022-11-18T04:59:31;3.50;99.90
10883;DHT22;5494;51.796;10.952;2022-11-18T05:02:00;3.50;99.90
10883;DHT22;5494;51.796;10.952;2022-11-18T05:04:30;3.50;99.90
10883;DHT22;5494;51.796;10.952;2022-11-18T05:07:02;3.40;99.90
10883;DHT22;5494;51.796;10.952;2022-11-18T05:09:33;3.40;99.90
10883;DHT22;5494;51.796;10.952;2022-11-18T05:12:02;3.40;99.90
10883;DHT22;5494;51.796;10.952;2022-11-18T05:14:48;3.40;99.90
10883;DHT22;5494;51.796;10.952;2022-11-18T05:17:18;3.30;99.90
10883;DHT22;5494;51.796;10.952;2022-11-18T05:19:46;3.40;99.90
10883;DHT22;5494;51.796;10.952;2022-11-18T05:22:14;3.40;99.90
10883;DHT22;5494;51.796;10.952;2022-11-18T05:24:45;3.40;99.90
10883;DHT22;5494;51.796;10.952;2022-11-18T05:27:14;3.40;99.90
10883;DHT22;5494;51.796;10.952;2022-11-18T05:29:43;3.40;99.90
10883;DHT22;5494;51.796;10.952;2022-11-18T05:32:11;3.30;99.90
10883;DHT22;5494;51.796;10.952;2022-11-18T05:34:41;3.30;99.90
10883;DHT22;5494;51.796;10.952;2022-11-18T05:37:10;3.20;99.90
10883;DHT22;5494;51.796;10.952;2022-11-18T05:39:38;3.20;99.90
10883;DHT22;5494;51.796;10.952;2022-11-18T05:42:09;3.20;99.90
10883;DHT22;5494;51.796;10.952;2022-11-18T05:44:55;3.30;99.90
10883;DHT22;5494;51.796;10.952;2022-11-18T05:47:25;3.20;99.90
10883;DHT22;5494;51.796;10.952;2022-11-18T05:49:53;3.20;99.90
10883;DHT22;5494;51.796;10.952;2022-11-18T05:52:22;3.20;99.90
10883;DHT22;5494;51.796;10.952;2022-11-18T05:54:50;3.10;99.90
10883;DHT22;5494;51.796;10.952;2022-11-18T05:57:20;3.10;99.90
10883;DHT22;5494;51.796;10.952;2022-11-18T05:59:49;3.00;99.90
10883;DHT22;5494;51.796;10.952;2022-11-18T06:02:20;3.10;99.90
10883;DHT22;5494;51.796;10.952;2022-11-18T06:04:53;3.10;99.90
10883;DHT22;5494;51.796;10.952;2022-11-18T06:07:28;3.10;99.90
10883;DHT22;5494;51.796;10.952;2022-11-18T06:10:04;3.00;99.90
10883;DHT22;5494;51.796;10.952;2022-11-18T06:12:38;3.00;99.90
10883;DHT22;5494;51.796;10.952;2022-11-18T06:15:15;3.00;99.90
10883;DHT22;5494;51.796;10.952;2022-11-18T06:17:50;3.00;99.90
10883;DHT22;5494;51.796;10.952;2022-11-18T06:20:23;3.00;99.90
10883;DHT22;5494;51.796;10.952;2022-11-18T06:22:54;3.20;99.90
10883;DHT22;5494;51.796;10.952;2022-11-18T06:25:25;3.20;99.90
10883;DHT22;5494;51.796;10.952;2022-11-18T06:27:56;3.10;99.90
10883;DHT22;5494;51.796;10.952;2022-11-18T06:30:27;3.00;99.90
10883;DHT22;5494;51.796;10.952;2022-11-18T06:32:56;3.10;99.90
10883;DHT22;5494;51.796;10.952;2022-11-18T06:35:24;3.00;99.90
10883;DHT22;5494;51.796;10.952;2022-11-18T06:37:52;3.00;99.90
10883;DHT22;5494;51.796;10.952;2022-11-18T06:40:21;3.00;99.90
10883;DHT22;5494;51.796;10.952;2022-11-18T06:42:49;3.00;99.90
10883;DHT22;5494;51.796;10.952;2022-11-18T06:45:37;3.00;99.90
10883;DHT22;5494;51.796;10.952;2022-11-18T06:48:05;3.10;99.90
10883;DHT22;5494;51.796;10.952;2022-11-18T06:50:34;3.00;99.90
10883;DHT22;5494;51.796;10.952;2022-11-18T06:53:02;2.90;99.90
10883;DHT22;5494;51.796;10.952;2022-11-18T06:55:31;2.90;99.90
10883;DHT22;5494;51.796;10.952;2022-11-18T06:58:01;2.90;99.90
10883;DHT22;5494;51.796;10.952;2022-11-18T07:00:30;2.90;99.90
10883;DHT22;5494;51.796;10.952;2022-11-18T07:03:00;2.90;99.90
10883;DHT22;5494;51.796;10.952;2022-11-18T07:05:29;2.90;99.90
10883;DHT22;5494;51.796;10.952;2022-11-18T07:07:57;2.90;99.90
10883;DHT22;5494;51.796;10.952;2022-11-18T07:10:26;2.90;99.90
10883;DHT22;5494;51.796;10.952;2022-11-18T07:12:54;2.90;99.90
10883;DHT22;5494;51.796;10.952;2022-11-18T07:15:23;2.90;99.90
10883;DHT22;5494;51.796;10.952;2022-11-18T07:17:52;2.90;99.90
10883;DHT22;5494;51.796;10.952;2022-11-18T07:20:21;2.90;99.90
10883;DHT22;5494;51.796;10.952;2022-11-18T07:22:51;2.90;99.90
10883;DHT22;5494;51.796;10.952;2022-11-18T07:25:20;2.90;99.90
10883;DHT22;5494;51.796;10.952;2022-11-18T07:27:48;2.90;99.90
10883;DHT22;5494;51.796;10.952;2022-11-18T07:30:17;2.90;99.90
10883;DHT22;5494;51.796;10.952;2022-11-18T07:32:45;2.90;99.90
10883;DHT22;5494;51.796;10.952;2022-11-18T07:35:14;2.90;99.90
10883;DHT22;5494;51.796;10.952;2022-11-18T07:37:45;2.90;99.90
10883;DHT22;5494;51.796;10.952;2022-11-18T07:40:14;2.80;99.90
10883;DHT22;5494;51.796;10.952;2022-11-18T07:42:43;2.80;99.90
10883;DHT22;5494;51.796;10.952;2022-11-18T07:45:23;2.80;99.90
10883;DHT22;5494;51.796;10.952;2022-11-18T07:47:53;2.80;99.90
10883;DHT22;5494;51.796;10.952;2022-11-18T07:50:21;2.80;99.90
10883;DHT22;5494;51.796;10.952;2022-11-18T07:52:54;2.80;99.90
10883;DHT22;5494;51.796;10.952;2022-11-18T07:55:23;2.70;99.90
10883;DHT22;5494;51.796;10.952;2022-11-18T07:57:57;2.70;99.90
10883;DHT22;5494;51.796;10.952;2022-11-18T08:00:26;2.70;99.90
10883;DHT22;5494;51.796;10.952;2022-11-18T08:02:54;2.70;99.90
10883;DHT22;5494;51.796;10.952;2022-11-18T08:05:23;2.60;99.90
10883;DHT22;5494;51.796;10.952;2022-11-18T08:07:53;2.60;99.90
10883;DHT22;5494;51.796;10.952;2022-11-18T08:10:21;2.60;99.90
10883;DHT22;5494;51.796;10.952;2022-11-18T08:12:50;2.50;99.90
10883;DHT22;5494;51.796;10.952;2022-11-18T08:15:19;2.40;99.90
10883;DHT22;5494;51.796;10.952;2022-11-18T08:17:47;2.40;99.90
10883;DHT22;5494;51.796;10.952;2022-11-18T08:20:16;2.50;99.90
10883;DHT22;5494;51.796;10.952;2022-11-18T08:22:44;2.50;99.90
10883;DHT22;5494;51.796;10.952;2022-11-18T08:25:15;2.40;99.90
10883;DHT22;5494;51.796;10.952;2022-11-18T08:27:43;2.30;99.90
10883;DHT22;5494;51.796;10.952;2022-11-18T08:30:12;2.30;99.90
10883;DHT22;5494;51.796;10.952;2022-11-18T08:32:41;2.30;99.90
10883;DHT22;5494;51.796;10.952;2022-11-18T08:35:09;2.30;99.90
10883;DHT22;5494;51.796;10.952;2022-11-18T08:37:38;2.20;99.90
10883;DHT22;5494;51.796;10.952;2022-11-18T08:40:08;2.20;99.90
10883;DHT22;5494;51.796;10.952;2022-11-18T08:42:38;2.20;99.90
10883;DHT22;5494;51.796;10.952;2022-11-18T08:45:07;2.20;99.90
10883;DHT22;5494;51.796;10.952;2022-11-18T08:47:36;2.20;99.90
10883;DHT22;5494;51.796;10.952;2022-11-18T08:50:07;2.10;99.90
10883;DHT22;5494;51.796;10.952;2022-11-18T08:52:37;2.10;99.90
10883;DHT22;5494;51.796;10.952;2022-11-18T08:55:06;2.00;99.90
10883;DHT22;5494;51.796;10.952;2022-11-18T08:57:34;2.00;99.90
10883;DHT22;5494;51.796;10.952;2022-11-18T09:00:05;2.10;99.90
10883;DHT22;5494;51.796;10.952;2022-11-18T09:02:35;2.10;99.90
10883;DHT22;5494;51.796;10.952;2022-11-18T09:05:04;2.00;99.90
10883;DHT22;5494;51.796;10.952;2022-11-18T09:07:33;2.00;99.90
10883;DHT22;5494;51.796;10.952;2022-11-18T09:10:02;2.00;99.90
10883;DHT22;5494;51.796;10.952;2022-11-18T09:12:30;2.10;99.90
10883;DHT22;5494;51.796;10.952;2022-11-18T09:14:59;2.00;99.90
10883;DHT22;5494;51.796;10.952;2022-11-18T09:17:45;2.00;99.90
10883;DHT22;5494;51.796;10.952;2022-11-18T09:20:14;1.90;99.90
10883;DHT22;5494;51.796;10.952;2022-11-18T09:22:43;2.00;99.90
10883;DHT22;5494;51.796;10.952;2022-11-18T09:25:11;2.00;99.90
10883;DHT22;5494;51.796;10.952;2022-11-18T09:27:40;2.00;99.90
10883;DHT22;5494;51.796;10.952;2022-11-18T09:30:09;2.00;99.90
10883;DHT22;5494;51.796;10.952;2022-11-18T09:32:37;2.00;99.90
10883;DHT22;5494;51.796;10.952;2022-11-18T09:35:08;2.00;99.90
10883;DHT22;5494;51.796;10.952;2022-11-18T09:37:36;2.00;99.90
10883;DHT22;5494;51.796;10.952;2022-11-18T09:40:06;2.10;99.90
10883;DHT22;5494;51.796;10.952;2022-11-18T09:42:51;2.10;99.90
10883;DHT22;5494;51.796;10.952;2022-11-18T09:45:31;2.20;99.90
10883;DHT22;5494;51.796;10.952;2022-11-18T09:48:13;2.00;99.90
10883;DHT22;5494;51.796;10.952;2022-11-18T09:50:46;2.00;99.90
10883;DHT22;5494;51.796;10.952;2022-11-18T09:53:19;1.90;99.90
10883;DHT22;5494;51.796;10.952;2022-11-18T09:55:49;1.90;99.90
10883;DHT22;5494;51.796;10.952;2022-11-18T09:58:23;1.90;99.90
10883;DHT22;5494;51.796;10.952;2022-11-18T10:00:58;1.80;99.90
10883;DHT22;5494;51.796;10.952;2022-11-18T10:03:29;1.80;99.90
10883;DHT22;5494;51.796;10.952;2022-11-18T10:06:04;1.90;99.90
10883;DHT22;5494;51.796;10.952;2022-11-18T10:08:59;1.90;99.90
10883;DHT22;5494;51.796;10.952;2022-11-18T10:11:39;1.80;99.90
10883;DHT22;5494;51.796;10.952;2022-11-18T10:14:27;1.80;99.90
10883;DHT22;5494;51.796;10.952;2022-11-18T10:17:16;1.80;99.90
10883;DHT22;5494;51.796;10.952;2022-11-18T10:20:12;1.80;99.90
10883;DHT22;5494;51.796;10.952;2022-11-18T10:22:53;1.60;99.90
10883;DHT22;5494;51.796;10.952;2022-11-18T10:25:25;1.60;99.90
10883;DHT22;5494;51.796;10.952;2022-11-18T10:27:54;1.60;99.90
10883;DHT22;5494;51.796;10.952;2022-11-18T10:30:26;1.60;99.90
10883;DHT22;5494;51.796;10.952;2022-11-18T10:32:57;1.50;99.90
10883;DHT22;5494;51.796;10.952;2022-11-18T10:35:29;1.60;99.90
10883;DHT22;5494;51.796;10.952;2022-11-18T10:38:04;1.50;99.90
10883;DHT22;5494;51.796;10.952;2022-11-18T10:40:45;1.50;99.90
10883;DHT22;5494;51.796;10.952;2022-11-18T10:43:47;1.50;99.90
10883;DHT22;5494;51.796;10.952;2022-11-18T10:46:23;1.50;99.90
10883;DHT22;5494;51.796;10.952;2022-11-18T10:49:14;1.50;99.90
10883;DHT22;5494;51.796;10.952;2022-11-18T10:51:44;1.50;99.90
10883;DHT22;5494;51.796;10.952;2022-11-18T10:54:18;1.50;99.90
10883;DHT22;5494;51.796;10.952;2022-11-18T10:56:50;1.50;99.90
10883;DHT22;5494;51.796;10.952;2022-11-18T10:59:29;1.40;99.90
10883;DHT22;5494;51.796;10.952;2022-11-18T11:02:02;1.30;99.90
10883;DHT22;5494;51.796;10.952;2022-11-18T11:04:42;1.30;99.90
10883;DHT22;5494;51.796;10.952;2022-11-18T11:07:24;1.40;99.90
10883;DHT22;5494;51.796;10.952;2022-11-18T11:10:18;1.40;99.90
10883;DHT22;5494;51.796;10.952;2022-11-18T11:12:58;1.40;99.90
10883;DHT22;5494;51.796;10.952;2022-11-18T11:15:35;1.40;99.90
10883;DHT22;5494;51.796;10.952;2022-11-18T11:18:11;1.30;99.90
10883;DHT22;5494;51.796;10.952;2022-11-18T11:21:02;1.30;99.90
10883;DHT22;5494;51.796;10.952;2022-11-18T11:23:32;1.20;99.90
10883;DHT22;5494;51.796;10.952;2022-11-18T11:26:06;1.20;99.90
10883;DHT22;5494;51.796;10.952;2022-11-18T11:29:06;1.20;99.90
10883;DHT22;5494;51.796;10.952;2022-11-18T11:31:46;1.30;99.90
10883;DHT22;5494;51.796;10.952;2022-11-18T11:34:27;1.20;99.90
10883;DHT22;5494;51.796;10.952;2022-11-18T11:37:13;1.20;99.90
10883;DHT22;5494;51.796;10.952;2022-11-18T11:40:07;1.10;99.90
10883;DHT22;5494;51.796;10.952;2022-11-18T11:42:57;1.10;99.90
10883;DHT22;5494;51.796;10.952;2022-11-18T11:45:41;1.00;99.90
10883;DHT22;5494;51.796;10.952;2022-11-18T11:48:32;1.10;99.90
10883;DHT22;5494;51.796;10.952;2022-11-18T11:51:17;1.10;99.90
10883;DHT22;5494;51.796;10.952;2022-11-18T11:54:21;1.10;99.90
10883;DHT22;5494;51.796;10.952;2022-11-18T11:57:13;1.00;99.90
10883;DHT22;5494;51.796;10.952;2022-11-18T11:59:57;1.00;99.90
10883;DHT22;5494;51.796;10.952;2022-11-18T12:05:39;0.90;99.90
10883;DHT22;5494;51.796;10.952;2022-11-18T12:08:13;1.00;99.90
10883;DHT22;5494;51.796;10.952;2022-11-18T12:10:50;1.00;99.90
10883;DHT22;5494;51.796;10.952;2022-11-18T12:13:34;0.90;99.90
10883;DHT22;5494;51.796;10.952;2022-11-18T12:16:19;0.90;99.90
10883;DHT22;5494;51.796;10.952;2022-11-18T12:18:56;0.90;99.90
10883;DHT22;5494;51.796;10.952;2022-11-18T12:21:58;0.90;99.90
10883;DHT22;5494;51.796;10.952;2022-11-18T12:24:34;0.90;99.90
10883;DHT22;5494;51.796;10.952;2022-11-18T12:27:10;1.00;99.90
10883;DHT22;5494;51.796;10.952;2022-11-18T12:29:51;1.00;99.90
10883;DHT22;5494;51.796;10.952;2022-11-18T12:32:34;1.00;99.90
10883;DHT22;5494;51.796;10.952;2022-11-18T12:35:24;1.00;99.90
10883;DHT22;5494;51.796;10.952;2022-11-18T12:38:00;0.90;99.90
10883;DHT22;5494;51.796;10.952;2022-11-18T12:40:36;0.00;99.90
10883;DHT22;5494;51.796;10.952;2022-11-18T12:46:50;0.80;99.90
10883;DHT22;5494;51.796;10.952;2022-11-18T12:52:49;0.80;99.90
10883;DHT22;5494;51.796;10.952;2022-11-18T12:55:30;0.80;99.90
10883;DHT22;5494;51.796;10.952;2022-11-18T12:58:00;0.70;99.90
10883;DHT22;5494;51.796;10.952;2022-11-18T13:00:31;0.70;99.90
10883;DHT22;5494;51.796;10.952;2022-11-18T13:03:23;0.70;99.90
10883;DHT22;5494;51.796;10.952;2022-11-18T13:06:06;0.70;99.90
10883;DHT22;5494;51.796;10.952;2022-11-18T13:08:43;0.60;99.90
10883;DHT22;5494;51.796;10.952;2022-11-18T13:11:18;0.50;99.90
10883;DHT22;5494;51.796;10.952;2022-11-18T13:14:05;0.60;99.90
10883;DHT22;5494;51.796;10.952;2022-11-18T13:17:02;0.70;99.90
10883;DHT22;5494;51.796;10.952;2022-11-18T13:20:18;0.60;99.90
10883;DHT22;5494;51.796;10.952;2022-11-18T13:22:51;0.60;99.90
10883;DHT22;5494;51.796;10.952;2022-11-18T13:25:38;0.70;99.90
10883;DHT22;5494;51.796;10.952;2022-11-18T13:28:19;0.70;99.90
10883;DHT22;5494;51.796;10.952;2022-11-18T13:31:00;0.70;99.90
10883;DHT22;5494;51.796;10.952;2022-11-18T13:33:35;0.60;99.90
10883;DHT22;5494;51.796;10.952;2022-11-18T13:36:15;0.60;99.90
10883;DHT22;5494;51.796;10.952;2022-11-18T13:38:55;0.80;99.90
10883;DHT22;5494;51.796;10.952;2022-11-18T13:41:26;0.70;99.90
10883;DHT22;5494;51.796;10.952;2022-11-18T13:44:16;0.70;99.90
10883;DHT22;5494;51.796;10.952;2022-11-18T13:46:48;0.70;99.90
10883;DHT22;5494;51.796;10.952;2022-11-18T13:49:22;0.70;99.90
10883;DHT22;5494;51.796;10.952;2022-11-18T13:52:00;0.70;99.90
10883;DHT22;5494;51.796;10.952;2022-11-18T13:54:30;0.70;99.90
10883;DHT22;5494;51.796;10.952;2022-11-18T13:56:59;0.70;99.90
10883;DHT22;5494;51.796;10.952;2022-11-18T13:59:27;0.60;99.90
10883;DHT22;5494;51.796;10.952;2022-11-18T14:01:58;0.60;99.90
10883;DHT22;5494;51.796;10.952;2022-11-18T14:04:29;0.60;99.90
10883;DHT22;5494;51.796;10.952;2022-11-18T14:07:22;0.60;99.90
10883;DHT22;5494;51.796;10.952;2022-11-18T14:09:56;0.60;99.90
10883;DHT22;5494;51.796;10.952;2022-11-18T14:12:28;0.50;99.90
10883;DHT22;5494;51.796;10.952;2022-11-18T14:15:12;0.50;99.90
10883;DHT22;5494;51.796;10.952;2022-11-18T14:17:53;0.40;99.90
10883;DHT22;5494;51.796;10.952;2022-11-18T14:20:23;0.40;99.90
10883;DHT22;5494;51.796;10.952;2022-11-18T14:22:54;0.30;99.90
10883;DHT22;5494;51.796;10.952;2022-11-18T14:25:30;0.30;99.90
10883;DHT22;5494;51.796;10.952;2022-11-18T14:28:10;0.20;99.90
10883;DHT22;5494;51.796;10.952;2022-11-18T14:30:59;0.20;99.90
10883;DHT22;5494;51.796;10.952;2022-11-18T14:33:31;0.20;99.90
10883;DHT22;5494;51.796;10.952;2022-11-18T14:36:02;0.20;99.90
10883;DHT22;5494;51.796;10.952;2022-11-18T14:38:42;0.10;99.90
10883;DHT22;5494;51.796;10.952;2022-11-18T14:41:33;0.10;99.90
10883;DHT22;5494;51.796;10.952;2022-11-18T14:44:15;0.10;99.90
10883;DHT22;5494;51.796;10.952;2022-11-18T14:46:47;0.00;99.90
10883;DHT22;5494;51.796;10.952;2022-11-18T14:49:21;0.00;99.90
10883;DHT22;5494;51.796;10.952;2022-11-18T14:51:52;0.00;99.90
10883;DHT22;5494;51.796;10.952;2022-11-18T14:54:23;-0.10;99.90
10883;DHT22;5494;51.796;10.952;2022-11-18T14:56:57;-0.10;99.90
10883;DHT22;5494;51.796;10.952;2022-11-18T14:59:29;-0.10;99.90
10883;DHT22;5494;51.796;10.952;2022-11-18T15:01:58;-0.10;99.90
10883;DHT22;5494;51.796;10.952;2022-11-18T15:04:27;0.00;99.90
10883;DHT22;5494;51.796;10.952;2022-11-18T15:06:55;0.00;99.90
10883;DHT22;5494;51.796;10.952;2022-11-18T15:09:24;-0.10;99.90
10883;DHT22;5494;51.796;10.952;2022-11-18T15:11:52;-0.20;99.90
10883;DHT22;5494;51.796;10.952;2022-11-18T15:14:22;-0.30;99.90
10883;DHT22;5494;51.796;10.952;2022-11-18T15:16:51;-0.50;99.90
10883;DHT22;5494;51.796;10.952;2022-11-18T15:19:19;-0.50;99.90
10883;DHT22;5494;51.796;10.952;2022-11-18T15:21:48;-0.50;99.90
10883;DHT22;5494;51.796;10.952;2022-11-18T15:24:16;1.00;99.90
10883;DHT22;5494;51.796;10.952;2022-11-18T15:26:46;-0.40;99.90
10883;DHT22;5494;51.796;10.952;2022-11-18T15:29:19;-0.40;99.90
10883;DHT22;5494;51.796;10.952;2022-11-18T15:31:50;-0.40;99.90
10883;DHT22;5494;51.796;10.952;2022-11-18T15:34:19;-0.40;99.90
10883;DHT22;5494;51.796;10.952;2022-11-18T15:36:48;-0.40;99.90
10883;DHT22;5494;51.796;10.952;2022-11-18T15:39:17;-0.30;99.90
10883;DHT22;5494;51.796;10.952;2022-11-18T15:41:45;-0.40;99.90
10883;DHT22;5494;51.796;10.952;2022-11-18T15:44:14;-0.30;99.90
10883;DHT22;5494;51.796;10.952;2022-11-18T15:46:43;-0.40;99.90
10883;DHT22;5494;51.796;10.952;2022-11-18T15:49:15;-0.60;99.90
10883;DHT22;5494;51.796;10.952;2022-11-18T15:51:44;-0.70;99.90
10883;DHT22;5494;51.796;10.952;2022-11-18T15:54:12;-0.70;99.90
10883;DHT22;5494;51.796;10.952;2022-11-18T15:56:41;-0.70;99.90
10883;DHT22;5494;51.796;10.952;2022-11-18T15:59:11;-0.80;99.90
10883;DHT22;5494;51.796;10.952;2022-11-18T16:01:42;-0.80;99.90
10883;DHT22;5494;51.796;10.952;2022-11-18T16:04:15;-0.70;99.90
10883;DHT22;5494;51.796;10.952;2022-11-18T16:06:46;-0.70;99.90
10883;DHT22;5494;51.796;10.952;2022-11-18T16:09:16;-0.70;99.90
10883;DHT22;5494;51.796;10.952;2022-11-18T16:11:45;-0.80;99.90
10883;DHT22;5494;51.796;10.952;2022-11-18T16:14:31;-0.80;99.90
10883;DHT22;5494;51.796;10.952;2022-11-18T16:17:03;-0.80;99.90
10883;DHT22;5494;51.796;10.952;2022-11-18T16:19:33;-0.80;99.90
10883;DHT22;5494;51.796;10.952;2022-11-18T16:22:01;-0.80;99.90
10883;DHT22;5494;51.796;10.952;2022-11-18T16:24:30;-0.80;99.90
10883;DHT22;5494;51.796;10.952;2022-11-18T16:26:58;-0.80;99.90
10883;DHT22;5494;51.796;10.952;2022-11-18T16:29:30;-0.80;99.90
10883;DHT22;5494;51.796;10.952;2022-11-18T16:31:59;-0.80;99.90
10883;DHT22;5494;51.796;10.952;2022-11-18T16:34:27;-0.80;99.90
10883;DHT22;5494;51.796;10.952;2022-11-18T16:36:57;-0.80;99.90
10883;DHT22;5494;51.796;10.952;2022-11-18T16:39:27;-0.90;99.90